Time;durP1;ratioP1;P1;durP2;ratioP2;P2;SDS_P1;SDS_P2;PMS_P1;PMS_P2;Temp;Humidity;BMP_temperature;BMP_pressure;BME280_temperature;BME280_humidity;BME280_pressure;Samples;Min_cycle;Max_cycle;Signal;HPM_P1;HPM_P2
2021/03/06 00:00:54;;;;;;;11.68;2.83;;;3.20;56.90;;;;;;5033523;28;20056;-74
2021/03/06 00:03:25;;;;;;;5.20;2.47;;;3.30;56.50;;;;;;5037712;28;20049;-74
2021/03/06 00:05:55;;;;;;;5.15;2.58;;;3.50;56.50;;;;;;5034177;28;20053;-75
2021/03/06 00:08:25;;;;;;;4.90;2.80;;;3.50;56.10;;;;;;5035263;28;20443;-74
2021/03/06 00:10:53;;;;;;;5.43;2.53;;;3.30;56.10;;;;;;5030487;28;20724;-73
2021/03/06 00:13:23;;;;;;;6.03;2.33;;;3.50;56.30;;;;;;5033777;28;20505;-76
2021/03/06 00:15:49;;;;;;;4.40;2.38;;;3.30;56.20;;;;;;5036777;28;20141;-75
2021/03/06 00:18:16;;;;;;;5.38;2.42;;;3.30;56.10;;;;;;5032493;28;20785;-75
2021/03/06 00:20:42;;;;;;;5.60;2.65;;;3.40;56.20;;;;;;5032558;28;20485;-76
2021/03/06 00:23:08;;;;;;;5.47;2.80;;;3.20;56.40;;;;;;5035194;28;20053;-74
2021/03/06 00:25:35;;;;;;;4.25;2.30;;;3.20;56.10;;;;;;5035761;28;20162;-74
2021/03/06 00:28:01;;;;;;;4.88;2.53;;;3.20;56.00;;;;;;5033532;28;20106;-75
2021/03/06 00:30:28;;;;;;;6.15;2.97;;;3.30;56.40;;;;;;5034249;28;20432;-74
2021/03/06 00:32:54;;;;;;;3.83;2.30;;;3.10;56.70;;;;;;5009857;28;20049;-75
2021/03/06 00:35:21;;;;;;;4.40;2.70;;;3.30;56.80;;;;;;5008700;28;20100;-76
2021/03/06 00:37:47;;;;;;;5.65;2.67;;;2.90;56.90;;;;;;5046116;28;20046;-75
2021/03/06 00:40:14;;;;;;;4.65;2.85;;;2.80;57.00;;;;;;5011875;28;20057;-74
2021/03/06 00:42:40;;;;;;;4.78;2.90;;;3.00;56.70;;;;;;5010053;28;20649;-74
2021/03/06 00:45:08;;;;;;;5.03;2.45;;;2.90;56.90;;;;;;5011711;28;20041;-73
2021/03/06 00:47:35;;;;;;;5.75;3.00;;;2.70;57.70;;;;;;5017286;28;20107;-75
2021/03/06 00:50:16;;;;;;;5.88;2.80;;;2.80;57.90;;;;;;5012007;28;20075;-74
2021/03/06 00:52:43;;;;;;;4.43;2.38;;;2.70;57.10;;;;;;5013550;28;20046;-74
2021/03/06 00:55:09;;;;;;;5.82;2.95;;;2.60;57.10;;;;;;5010779;28;20053;-74
2021/03/06 00:57:36;;;;;;;7.65;3.10;;;2.70;57.80;;;;;;5014462;28;20045;-74
2021/03/06 01:00:04;;;;;;;5.63;3.00;;;2.70;58.10;;;;;;5009123;28;20073;-74
2021/03/06 01:02:30;;;;;;;4.63;2.80;;;2.90;57.80;;;;;;5012421;28;20053;-73
2021/03/06 01:04:57;;;;;;;6.80;3.00;;;2.90;57.50;;;;;;5023954;28;20054;-73
2021/03/06 01:07:23;;;;;;;6.20;3.05;;;3.00;57.30;;;;;;5018798;28;20053;-75
2021/03/06 01:09:50;;;;;;;3.17;2.42;;;2.70;57.30;;;;;;5015436;28;20057;-72
2021/03/06 01:12:17;;;;;;;6.43;2.78;;;2.80;57.20;;;;;;5024766;28;20045;-74
2021/03/06 01:14:43;;;;;;;4.88;2.72;;;2.90;57.30;;;;;;5022653;28;20588;-74
2021/03/06 01:17:09;;;;;;;6.97;2.90;;;2.80;57.40;;;;;;5031723;28;20141;-74
2021/03/06 01:19:38;;;;;;;6.50;3.00;;;2.60;57.80;;;;;;5017550;28;20042;-74
2021/03/06 01:22:04;;;;;;;4.15;2.50;;;2.80;58.00;;;;;;5017130;28;20127;-75
2021/03/06 01:24:34;;;;;;;6.93;3.05;;;2.90;57.40;;;;;;5023870;28;20053;-73
2021/03/06 01:27:01;;;;;;;4.07;2.60;;;2.90;57.30;;;;;;5024498;28;20049;-76
2021/03/06 01:29:28;;;;;;;5.95;2.88;;;3.00;57.50;;;;;;5016207;28;20049;-74
2021/03/06 01:31:57;;;;;;;6.72;2.72;;;2.60;57.30;;;;;;5023808;28;20116;-74
2021/03/06 01:34:24;;;;;;;5.00;2.73;;;2.70;57.60;;;;;;5024527;28;20053;-74
2021/03/06 01:36:52;;;;;;;4.43;2.42;;;2.60;57.40;;;;;;5020710;28;20305;-75
2021/03/06 01:39:18;;;;;;;4.72;2.40;;;2.80;57.90;;;;;;5017744;28;20506;-75
2021/03/06 01:41:45;;;;;;;4.05;2.30;;;2.70;57.20;;;;;;5018766;28;20092;-75
2021/03/06 01:44:11;;;;;;;5.47;2.83;;;2.50;57.80;;;;;;5038614;28;20049;-74
2021/03/06 01:46:38;;;;;;;3.50;2.40;;;2.10;58.00;;;;;;5032140;28;20156;-75
2021/03/06 01:49:04;;;;;;;3.70;2.30;;;2.30;58.40;;;;;;5033400;28;20470;-75
2021/03/06 01:51:31;;;;;;;4.85;2.83;;;2.20;58.00;;;;;;5024792;28;20393;-74
2021/03/06 01:53:58;;;;;;;6.70;2.90;;;2.20;58.00;;;;;;5028657;28;20096;-73
2021/03/06 01:56:24;;;;;;;4.60;2.80;;;2.10;58.30;;;;;;5053226;28;20050;-73
2021/03/06 01:58:51;;;;;;;6.28;2.55;;;2.40;58.00;;;;;;5026055;28;20421;-73
2021/03/06 02:01:18;;;;;;;2.80;2.08;;;2.70;57.30;;;;;;5027442;28;20046;-76
2021/03/06 02:03:44;;;;;;;4.97;2.28;;;2.50;57.00;;;;;;5025505;28;20058;-74
2021/03/06 02:06:11;;;;;;;8.05;2.97;;;2.50;57.20;;;;;;5028576;28;20145;-75
2021/03/06 02:08:38;;;;;;;5.32;2.40;;;2.20;57.10;;;;;;5057974;28;20061;-74
2021/03/06 02:11:04;;;;;;;5.03;2.67;;;2.50;57.30;;;;;;5022201;28;20410;-73
2021/03/06 02:13:43;;;;;;;4.70;2.38;;;2.40;57.00;;;;;;5032387;28;20049;-74
2021/03/06 02:16:20;;;;;;;4.65;2.55;;;2.70;57.40;;;;;;5022430;28;20042;-74
2021/03/06 02:19:01;;;;;;;4.55;2.58;;;2.40;57.10;;;;;;5032064;28;20041;-74
2021/03/06 02:21:35;;;;;;;3.65;2.67;;;2.30;57.50;;;;;;5026749;28;20045;-74
2021/03/06 02:24:30;;;;;;;5.15;2.70;;;2.30;58.20;;;;;;5024693;28;20080;-74
2021/03/06 02:27:02;;;;;;;4.93;2.63;;;2.30;58.30;;;;;;5048615;28;20131;-74
2021/03/06 02:29:28;;;;;;;5.32;2.60;;;2.30;57.90;;;;;;5062492;28;20493;-74
2021/03/06 02:31:56;;;;;;;4.38;2.25;;;2.20;58.40;;;;;;5040827;28;20132;-74
2021/03/06 02:34:30;;;;;;;5.90;2.90;;;2.00;58.00;;;;;;5020111;28;20044;-74
2021/03/06 02:37:06;;;;;;;5.28;2.60;;;2.10;57.10;;;;;;5026239;28;20505;-73
2021/03/06 02:39:36;;;;;;;4.40;2.88;;;2.40;57.00;;;;;;5017727;28;20533;-74
2021/03/06 02:42:05;;;;;;;3.07;2.53;;;2.20;57.30;;;;;;5023995;28;20050;-75
2021/03/06 02:44:33;;;;;;;3.88;2.40;;;2.30;57.70;;;;;;5022637;28;20054;-75
2021/03/06 02:47:00;;;;;;;5.63;2.47;;;2.20;58.00;;;;;;5053569;28;20491;-74
2021/03/06 02:49:26;;;;;;;5.75;2.20;;;2.30;57.30;;;;;;5032423;28;20053;-75
2021/03/06 02:51:53;;;;;;;4.93;2.45;;;2.30;57.50;;;;;;5028794;28;20046;-75
2021/03/06 02:54:20;;;;;;;4.00;2.40;;;2.10;57.50;;;;;;5030553;28;20422;-75
2021/03/06 02:56:46;;;;;;;3.25;2.10;;;2.30;57.20;;;;;;5017309;28;20481;-74
2021/03/06 02:59:43;;;;;;;4.95;2.45;;;2.20;57.30;;;;;;5025286;28;20064;-73
2021/03/06 03:02:09;;;;;;;5.05;2.30;;;2.10;56.70;;;;;;5026200;28;20100;-73
2021/03/06 03:04:46;;;;;;;3.60;2.17;;;2.20;56.40;;;;;;5026708;28;20049;-74
2021/03/06 03:07:21;;;;;;;4.70;2.38;;;2.30;56.70;;;;;;5027434;28;20085;-74
2021/03/06 03:09:52;;;;;;;3.58;2.30;;;1.80;56.80;;;;;;5021587;28;20141;-75
2021/03/06 03:12:23;;;;;;;4.85;2.38;;;2.20;57.20;;;;;;5021884;28;20049;-76
2021/03/06 03:15:31;;;;;;;4.80;2.28;;;1.80;57.20;;;;;;5024985;28;20042;-74
2021/03/06 03:17:58;;;;;;;6.05;2.33;;;2.10;57.20;;;;;;5026122;28;20045;-74
2021/03/06 03:20:51;;;;;;;4.45;2.50;;;2.00;56.60;;;;;;5028977;28;20111;-73
2021/03/06 03:23:29;;;;;;;3.75;2.20;;;2.30;56.60;;;;;;5021569;28;20053;-74
2021/03/06 03:26:11;;;;;;;6.10;2.85;;;2.10;56.70;;;;;;5039662;28;20045;-73
2021/03/06 03:28:40;;;;;;;7.60;2.85;;;2.20;56.80;;;;;;5026233;28;20470;-74
2021/03/06 03:31:08;;;;;;;3.65;2.35;;;1.70;56.70;;;;;;5022306;28;20093;-75
2021/03/06 03:33:37;;;;;;;4.07;2.50;;;1.90;57.30;;;;;;5027488;28;20115;-73
2021/03/06 03:36:05;;;;;;;3.95;2.75;;;1.80;56.80;;;;;;5051270;28;20129;-74
2021/03/06 03:38:32;;;;;;;4.78;2.30;;;1.70;56.70;;;;;;5018416;28;20133;-74
2021/03/06 03:41:02;;;;;;;4.70;2.40;;;1.90;57.00;;;;;;5021832;28;20103;-75
2021/03/06 03:43:29;;;;;;;4.40;2.53;;;2.00;57.10;;;;;;5022678;28;20104;-75
2021/03/06 03:45:57;;;;;;;5.18;2.40;;;1.90;57.30;;;;;;5021510;28;20046;-74
2021/03/06 03:48:24;;;;;;;4.88;2.55;;;2.00;57.20;;;;;;5021293;28;20508;-75
2021/03/06 03:50:50;;;;;;;4.60;2.33;;;1.60;57.10;;;;;;5032159;28;20061;-74
2021/03/06 03:53:18;;;;;;;5.10;2.50;;;1.70;57.10;;;;;;5024794;28;20470;-74
2021/03/06 03:55:45;;;;;;;3.80;2.33;;;1.70;57.00;;;;;;5055241;28;20087;-74
2021/03/06 03:58:12;;;;;;;4.63;2.80;;;2.20;57.30;;;;;;5020441;28;20428;-74
2021/03/06 04:00:38;;;;;;;4.85;2.63;;;1.80;56.80;;;;;;5051647;28;20061;-74
2021/03/06 04:03:06;;;;;;;3.60;2.20;;;1.80;56.80;;;;;;5016225;28;20088;-73
2021/03/06 04:05:34;;;;;;;4.45;2.50;;;1.70;57.40;;;;;;5017658;28;20049;-74
2021/03/06 04:08:00;;;;;;;6.18;2.50;;;2.00;57.00;;;;;;5020288;28;20539;-73
2021/03/06 04:10:28;;;;;;;6.53;2.53;;;2.00;56.80;;;;;;5025137;28;20049;-75
2021/03/06 04:12:56;;;;;;;6.05;2.70;;;2.10;56.60;;;;;;5051757;28;20470;-74
2021/03/06 04:15:23;;;;;;;3.70;2.50;;;2.20;56.50;;;;;;5019631;28;20041;-74
2021/03/06 04:17:51;;;;;;;5.13;2.63;;;2.00;56.20;;;;;;5026687;28;20041;-74
2021/03/06 04:20:21;;;;;;;3.30;2.40;;;1.80;56.30;;;;;;5026898;28;20053;-74
2021/03/06 04:22:47;;;;;;;5.57;2.65;;;1.90;56.70;;;;;;5022628;28;20160;-76
2021/03/06 04:25:14;;;;;;;4.35;2.67;;;2.00;56.40;;;;;;5022387;28;20104;-74
2021/03/06 04:27:41;;;;;;;3.72;2.58;;;1.90;56.10;;;;;;5025551;28;20454;-74
2021/03/06 04:30:09;;;;;;;4.32;2.53;;;1.70;56.10;;;;;;5016927;28;20471;-77
2021/03/06 04:32:36;;;;;;;5.15;2.30;;;2.10;56.70;;;;;;5023897;28;20053;-74
2021/03/06 04:35:04;;;;;;;6.03;2.28;;;1.80;56.10;;;;;;5021329;28;20132;-75
2021/03/06 04:37:31;;;;;;;4.72;2.90;;;1.90;56.30;;;;;;5023336;28;20054;-74
2021/03/06 04:39:57;;;;;;;5.28;2.80;;;2.00;56.80;;;;;;5018377;28;20131;-75
2021/03/06 04:42:23;;;;;;;4.55;2.50;;;2.20;56.90;;;;;;5020358;28;20135;-74
2021/03/06 04:44:50;;;;;;;4.47;2.90;;;1.80;56.60;;;;;;5053396;28;20053;-74
2021/03/06 04:47:17;;;;;;;3.80;2.33;;;2.00;56.80;;;;;;5023450;28;20146;-74
2021/03/06 04:49:44;;;;;;;4.35;2.80;;;1.80;56.60;;;;;;5018624;28;20049;-75
2021/03/06 04:52:13;;;;;;;14.07;4.20;;;2.00;56.90;;;;;;5030732;28;20159;-74
2021/03/06 04:54:40;;;;;;;14.80;4.35;;;1.80;56.40;;;;;;5022745;28;20053;-75
2021/03/06 04:57:08;;;;;;;9.40;3.63;;;2.10;56.40;;;;;;5013858;28;20049;-74
2021/03/06 04:59:35;;;;;;;12.63;3.65;;;1.90;56.10;;;;;;5021593;28;20042;-75
2021/03/06 05:02:01;;;;;;;6.88;3.42;;;1.80;56.30;;;;;;5016147;28;20089;-75
2021/03/06 05:04:29;;;;;;;7.25;3.25;;;1.70;56.80;;;;;;5030516;28;20080;-75
2021/03/06 05:06:56;;;;;;;6.78;2.90;;;1.80;57.00;;;;;;5022713;28;20057;-75
2021/03/06 05:09:22;;;;;;;3.92;3.00;;;1.60;57.20;;;;;;5020628;28;20099;-75
2021/03/06 05:11:49;;;;;;;6.63;3.05;;;1.70;57.70;;;;;;5019060;28;20062;-75
2021/03/06 05:14:16;;;;;;;6.85;3.05;;;1.50;57.50;;;;;;5057843;28;20136;-75
2021/03/06 05:16:42;;;;;;;5.20;2.80;;;1.70;57.70;;;;;;5017303;28;20488;-74
2021/03/06 05:19:09;;;;;;;4.28;2.67;;;1.60;57.30;;;;;;5026781;28;20128;-74
2021/03/06 05:21:36;;;;;;;3.80;2.53;;;2.00;57.80;;;;;;5011300;28;20050;-74
2021/03/06 05:24:04;;;;;;;3.65;2.63;;;1.50;57.00;;;;;;5022842;28;20050;-73
2021/03/06 05:26:30;;;;;;;5.55;2.75;;;1.90;57.00;;;;;;5021173;28;20049;-73
2021/03/06 05:28:57;;;;;;;6.05;3.10;;;1.60;57.70;;;;;;5016781;28;20413;-73
2021/03/06 05:31:24;;;;;;;4.75;3.30;;;1.40;57.30;;;;;;5022722;28;20069;-73
2021/03/06 05:33:50;;;;;;;5.60;2.70;;;1.80;58.00;;;;;;5026379;28;20052;-75
2021/03/06 05:36:17;;;;;;;5.45;2.92;;;1.70;57.40;;;;;;5017810;28;20045;-74
2021/03/06 05:38:43;;;;;;;5.57;2.65;;;1.60;58.10;;;;;;5023540;28;20053;-76
2021/03/06 05:41:09;;;;;;;4.68;2.65;;;1.40;57.40;;;;;;5021733;28;20445;-75
2021/03/06 05:43:37;;;;;;;5.60;2.65;;;1.30;57.50;;;;;;5017057;28;20544;-75
2021/03/06 05:46:04;;;;;;;5.43;3.17;;;1.30;57.40;;;;;;5018286;28;20054;-75
2021/03/06 05:48:31;;;;;;;7.43;3.30;;;1.20;58.00;;;;;;5024996;28;20046;-76
2021/03/06 05:51:00;;;;;;;4.38;3.03;;;1.30;57.80;;;;;;5041552;28;20053;-74
2021/03/06 05:53:29;;;;;;;4.93;2.75;;;1.30;57.60;;;;;;5050857;28;20115;-75
2021/03/06 05:55:58;;;;;;;7.10;3.40;;;1.70;57.70;;;;;;5026988;28;20100;-76
2021/03/06 05:58:30;;;;;;;5.47;3.47;;;1.40;57.80;;;;;;5028393;28;20061;-75
2021/03/06 06:00:58;;;;;;;7.53;3.58;;;1.50;57.60;;;;;;5018542;28;20049;-74
2021/03/06 06:03:24;;;;;;;7.82;3.55;;;1.20;57.80;;;;;;5033258;28;20099;-74
2021/03/06 06:05:53;;;;;;;6.45;3.42;;;1.10;58.20;;;;;;5025425;28;20038;-77
2021/03/06 06:08:19;;;;;;;7.22;3.72;;;1.30;58.30;;;;;;5023814;28;20115;-74
2021/03/06 06:10:48;;;;;;;6.15;3.80;;;1.40;58.20;;;;;;5027946;28;20523;-76
2021/03/06 06:13:15;;;;;;;5.45;3.63;;;1.30;58.30;;;;;;5026319;28;20048;-73
2021/03/06 06:15:44;;;;;;;7.93;3.90;;;1.50;58.90;;;;;;5016529;28;20053;-74
2021/03/06 06:18:12;;;;;;;7.63;3.85;;;1.50;59.30;;;;;;5028928;28;20405;-75
2021/03/06 06:20:39;;;;;;;7.20;4.07;;;1.70;58.30;;;;;;5024507;28;20588;-74
2021/03/06 06:23:09;;;;;;;7.35;3.50;;;1.50;57.90;;;;;;5030119;28;21651;-76
2021/03/06 06:25:40;;;;;;;6.78;3.60;;;1.50;58.60;;;;;;5026130;28;20057;-74
2021/03/06 06:28:15;;;;;;;7.93;3.60;;;1.50;59.10;;;;;;5051104;28;20551;-75
2021/03/06 06:30:42;;;;;;;8.90;3.67;;;1.20;58.70;;;;;;5024289;28;20116;-75
2021/03/06 06:33:09;;;;;;;6.95;3.22;;;1.50;59.40;;;;;;5026789;28;20079;-74
2021/03/06 06:35:43;;;;;;;7.68;4.15;;;1.20;58.80;;;;;;5019889;28;20132;-73
2021/03/06 06:38:09;;;;;;;5.68;3.78;;;1.40;58.70;;;;;;5021612;28;20042;-74
2021/03/06 06:40:38;;;;;;;6.40;3.83;;;1.20;58.60;;;;;;5021099;28;20053;-75
2021/03/06 06:43:21;;;;;;;5.22;3.47;;;1.30;59.10;;;;;;5024548;28;20461;-75
2021/03/06 06:45:48;;;;;;;6.93;3.78;;;1.50;59.20;;;;;;5038146;28;20528;-74
2021/03/06 06:48:16;;;;;;;6.18;3.70;;;1.30;59.60;;;;;;5028071;28;20061;-74
2021/03/06 06:50:42;;;;;;;5.15;3.28;;;1.40;59.50;;;;;;5018482;28;20041;-74
2021/03/06 06:53:27;;;;;;;9.05;3.47;;;1.30;58.90;;;;;;5024158;28;20050;-74
2021/03/06 06:55:54;;;;;;;9.38;4.07;;;1.70;59.20;;;;;;5055993;28;20053;-75
2021/03/06 06:58:40;;;;;;;10.57;3.95;;;1.30;59.60;;;;;;5019205;28;20050;-74
2021/03/06 07:01:29;;;;;;;7.50;3.85;;;1.40;59.60;;;;;;5024404;28;20088;-74
2021/03/06 07:04:07;;;;;;;7.57;4.20;;;1.30;59.60;;;;;;5026430;28;20782;-74
2021/03/06 07:06:34;;;;;;;7.05;4.05;;;1.40;60.00;;;;;;5013080;28;20065;-74
2021/03/06 07:09:19;;;;;;;7.80;4.10;;;1.50;60.00;;;;;;5027163;28;20136;-74
2021/03/06 07:11:45;;;;;;;8.77;4.10;;;2.00;59.50;;;;;;5025243;28;20053;-74
2021/03/06 07:14:12;;;;;;;7.32;4.25;;;1.70;59.20;;;;;;5028371;28;20042;-75
2021/03/06 07:16:56;;;;;;;7.63;3.72;;;1.90;59.20;;;;;;5019344;28;20054;-74
2021/03/06 07:19:26;;;;;;;8.60;4.25;;;2.20;59.10;;;;;;5025319;28;20041;-75
2021/03/06 07:21:52;;;;;;;7.03;3.90;;;1.90;58.10;;;;;;5057060;28;20551;-74
2021/03/06 07:24:19;;;;;;;7.68;4.30;;;1.70;58.60;;;;;;5023408;28;20490;-75
2021/03/06 07:26:51;;;;;;;6.93;3.80;;;2.00;58.70;;;;;;5022666;28;20457;-75
2021/03/06 07:29:20;;;;;;;8.63;3.80;;;1.70;58.50;;;;;;5026459;28;20124;-74
2021/03/06 07:31:51;;;;;;;7.03;4.10;;;2.00;58.40;;;;;;5024056;28;20481;-76
2021/03/06 07:34:20;;;;;;;7.80;3.95;;;2.00;58.00;;;;;;5052852;28;20048;-75
2021/03/06 07:36:48;;;;;;;10.18;4.38;;;2.30;58.50;;;;;;5037582;28;20045;-75
2021/03/06 07:39:17;;;;;;;9.70;4.35;;;2.40;58.10;;;;;;5021137;28;20052;-75
2021/03/06 07:41:57;;;;;;;12.40;3.95;;;2.30;57.60;;;;;;5029038;28;20073;-75
2021/03/06 07:44:25;;;;;;;;;;;2.60;56.50;;;;;;5024380;28;20082;-75
2021/03/06 07:46:53;;;;;;;9.13;3.85;;;2.90;55.80;;;;;;5020461;28;19979;-75
2021/03/06 07:49:25;;;;;;;7.57;3.70;;;2.80;55.90;;;;;;5025205;28;20049;-77
2021/03/06 07:51:55;;;;;;;7.05;4.10;;;2.80;56.30;;;;;;5054459;28;20087;-75
2021/03/06 07:54:21;;;;;;;8.00;3.80;;;2.80;56.30;;;;;;5026304;28;20045;-75
2021/03/06 07:56:48;;;;;;;8.98;3.97;;;3.30;56.90;;;;;;5035378;28;20042;-75
2021/03/06 07:59:47;;;;;;;5.28;2.50;;;5.10;55.30;;;;;;5024244;28;20449;-75
2021/03/06 08:02:32;;;;;;;6.60;3.35;;;7.00;49.00;;;;;;5050852;28;20061;-75
2021/03/06 08:05:44;;;;;;;4.38;2.60;;;6.60;47.80;;;;;;5027271;28;20045;-75
2021/03/06 08:08:36;;;;;;;4.35;2.67;;;6.30;48.60;;;;;;5051671;28;20096;-75
2021/03/06 08:11:09;;;;;;;4.43;2.47;;;7.40;47.70;;;;;;5023311;28;20046;-75
2021/03/06 08:13:54;;;;;;;5.80;3.10;;;8.20;46.00;;;;;;5048982;28;20160;-76
2021/03/06 08:16:23;;;;;;;6.60;2.88;;;7.40;45.60;;;;;;5048160;28;20045;-75
2021/03/06 08:19:00;;;;;;;4.25;2.63;;;7.30;46.30;;;;;;5026410;28;20163;-74
2021/03/06 08:21:32;;;;;;;4.75;2.42;;;7.80;46.70;;;;;;5015868;28;20054;-73
2021/03/06 08:24:14;;;;;;;8.15;3.05;;;8.30;45.00;;;;;;5016221;28;20183;-75
2021/03/06 08:26:51;;;;;;;5.95;3.08;;;8.30;44.30;;;;;;5024662;28;20139;-75
2021/03/06 08:29:24;;;;;;;6.95;2.58;;;8.70;43.90;;;;;;5055716;28;20065;-75
2021/03/06 08:32:06;;;;;;;4.05;2.63;;;8.30;43.50;;;;;;5037234;28;20052;-74
2021/03/06 08:34:43;;;;;;;4.20;2.38;;;8.60;42.60;;;;;;5022560;28;20076;-74
2021/03/06 08:37:15;;;;;;;4.30;2.55;;;8.20;42.30;;;;;;5050241;28;20485;-74
2021/03/06 08:39:57;;;;;;;4.65;2.63;;;7.80;42.90;;;;;;5019788;28;20092;-75
2021/03/06 08:42:27;;;;;;;5.05;2.80;;;7.70;43.90;;;;;;5023095;28;20103;-74
2021/03/06 08:44:55;;;;;;;3.85;2.50;;;9.10;42.80;;;;;;5026315;28;20065;-74
2021/03/06 08:47:27;;;;;;;5.03;2.75;;;10.80;39.70;;;;;;5018541;28;20054;-74
2021/03/06 08:49:59;;;;;;;3.97;2.35;;;10.20;39.50;;;;;;5019433;28;20473;-74
2021/03/06 08:52:28;;;;;;;3.78;2.28;;;11.70;37.50;;;;;;5017141;28;20045;-74
2021/03/06 08:54:55;;;;;;;6.53;2.40;;;13.60;36.00;;;;;;5046834;28;20076;-75
2021/03/06 08:57:40;;;;;;;4.70;2.55;;;13.50;33.50;;;;;;5001470;28;20140;-78
2021/03/06 09:00:17;;;;;;;4.65;2.45;;;13.30;33.90;;;;;;5016711;28;20076;-77
2021/03/06 09:02:45;;;;;;;4.35;2.17;;;11.30;35.80;;;;;;5019692;28;20136;-76
2021/03/06 09:05:24;;;;;;;4.35;2.55;;;10.30;35.70;;;;;;5021988;28;20076;-76
2021/03/06 09:07:56;;;;;;;3.95;2.47;;;10.80;37.40;;;;;;5017255;28;20061;-76
2021/03/06 09:10:25;;;;;;;6.65;2.45;;;9.30;37.20;;;;;;5021262;28;20503;-73
2021/03/06 09:13:01;;;;;;;4.75;2.60;;;9.20;39.10;;;;;;5016142;28;20132;-73
2021/03/06 09:15:35;;;;;;;3.80;2.35;;;10.60;37.10;;;;;;5021388;28;20748;-73
2021/03/06 09:18:09;;;;;;;3.67;2.10;;;10.00;36.50;;;;;;5017132;28;20140;-72
2021/03/06 09:20:40;;;;;;;4.15;2.20;;;8.60;38.30;;;;;;5019335;28;20054;-72
2021/03/06 09:23:06;;;;;;;4.95;2.10;;;7.80;39.80;;;;;;5020842;28;20069;-74
2021/03/06 09:25:37;;;;;;;3.05;1.90;;;7.50;40.00;;;;;;5023575;28;20680;-74
2021/03/06 09:28:05;;;;;;;2.83;2.10;;;7.90;40.10;;;;;;5023750;28;20144;-73
2021/03/06 09:30:39;;;;;;;3.83;2.33;;;8.70;39.20;;;;;;5053566;28;20049;-74
2021/03/06 09:33:27;;;;;;;3.60;2.00;;;9.50;38.10;;;;;;5027258;28;20420;-73
2021/03/06 09:36:15;;;;;;;4.05;2.15;;;10.50;35.90;;;;;;5021078;28;20077;-72
2021/03/06 09:38:52;;;;;;;4.95;2.40;;;11.00;34.80;;;;;;5023980;28;20448;-73
2021/03/06 09:41:20;;;;;;;4.95;2.40;;;10.20;35.70;;;;;;5022647;28;20084;-75
2021/03/06 09:43:52;;;;;;;4.43;2.70;;;9.10;37.70;;;;;;5023154;28;20057;-76
2021/03/06 09:46:31;;;;;;;3.97;2.35;;;9.10;38.40;;;;;;5023336;28;20053;-74
2021/03/06 09:49:04;;;;;;;3.92;2.50;;;8.40;39.10;;;;;;5023052;28;20650;-76
2021/03/06 09:51:41;;;;;;;3.97;2.20;;;8.60;40.10;;;;;;5024855;28;20051;-76
2021/03/06 09:54:08;;;;;;;3.65;2.33;;;9.10;37.80;;;;;;5022585;28;20099;-77
2021/03/06 09:56:59;;;;;;;8.00;2.15;;;9.00;38.30;;;;;;5021737;28;20057;-75
2021/03/06 09:59:27;;;;;;;3.60;2.33;;;8.20;39.40;;;;;;5024417;28;20743;-75
2021/03/06 10:02:02;;;;;;;5.97;2.75;;;7.70;40.20;;;;;;5022411;28;20076;-74
2021/03/06 10:04:28;;;;;;;3.15;2.30;;;7.70;40.40;;;;;;5021075;28;20067;-74
2021/03/06 10:06:58;;;;;;;4.30;2.30;;;7.50;41.30;;;;;;5025618;28;20060;-75
2021/03/06 10:09:26;;;;;;;2.53;1.77;;;8.10;39.90;;;;;;5021154;28;20067;-75
2021/03/06 10:12:02;;;;;;;4.82;1.50;;;9.10;36.90;;;;;;5025971;28;20148;-75
2021/03/06 10:14:29;;;;;;;4.50;1.70;;;10.30;33.40;;;;;;5021290;28;20115;-75
2021/03/06 10:17:00;;;;;;;7.50;2.30;;;10.70;32.80;;;;;;5019607;28;20111;-74
2021/03/06 10:19:32;;;;;;;3.45;2.00;;;10.00;32.90;;;;;;5051582;28;21216;-73
2021/03/06 10:22:04;;;;;;;2.63;1.67;;;9.50;35.90;;;;;;5022853;28;20144;-72
2021/03/06 10:24:49;;;;;;;2.92;1.58;;;9.90;34.80;;;;;;5019969;28;20131;-73
2021/03/06 10:27:15;;;;;;;6.00;1.80;;;10.00;33.60;;;;;;5023198;28;20048;-74
2021/03/06 10:29:42;;;;;;;1.55;1.10;;;9.80;34.10;;;;;;5021199;28;20091;-73
2021/03/06 10:32:08;;;;;;;3.28;1.42;;;10.70;30.50;;;;;;5021807;28;20049;-74
2021/03/06 10:34:48;;;;;;;2.78;1.60;;;10.30;30.80;;;;;;5020226;28;20053;-76
2021/03/06 10:37:16;;;;;;;3.80;1.60;;;9.10;33.60;;;;;;5021973;28;20581;-74
2021/03/06 10:40:04;;;;;;;5.18;1.58;;;9.00;35.10;;;;;;5018870;28;20076;-75
2021/03/06 10:42:45;;;;;;;2.35;1.35;;;10.90;31.70;;;;;;5020072;28;20844;-75
2021/03/06 10:45:30;;;;;;;8.73;2.00;;;12.30;29.40;;;;;;5017949;28;20528;-75
2021/03/06 10:47:59;;;;;;;5.28;1.50;;;11.80;29.10;;;;;;5022003;28;20148;-75
2021/03/06 10:50:27;;;;;;;3.00;1.60;;;11.20;30.00;;;;;;5019946;28;20064;-77
2021/03/06 10:53:13;;;;;;;2.42;1.45;;;10.80;30.20;;;;;;5020124;28;20049;-76
2021/03/06 10:55:42;;;;;;;2.47;1.50;;;10.20;29.80;;;;;;5023585;28;20168;-77
2021/03/06 10:58:08;;;;;;;5.10;1.67;;;10.20;30.00;;;;;;5018202;28;20578;-77
2021/03/06 11:00:35;;;;;;;2.63;1.60;;;10.60;30.50;;;;;;5022837;28;20077;-74
2021/03/06 11:03:05;;;;;;;3.25;1.67;;;11.70;29.90;;;;;;5020531;28;20044;-84
2021/03/06 11:05:33;;;;;;;3.45;2.05;;;13.20;28.90;;;;;;5020258;28;20040;-82
2021/03/06 11:08:17;;;;;;;2.65;1.83;;;12.40;28.80;;;;;;5018182;28;20136;-75
2021/03/06 11:10:49;;;;;;;5.38;1.70;;;11.00;30.60;;;;;;5022584;28;20076;-74
2021/03/06 11:13:18;;;;;;;4.40;1.92;;;10.70;30.80;;;;;;5017571;28;20430;-76
2021/03/06 11:15:50;;;;;;;2.75;1.73;;;10.90;30.40;;;;;;5017783;28;20095;-74
2021/03/06 11:18:19;;;;;;;2.50;1.70;;;11.30;30.00;;;;;;5019533;28;20134;-73
2021/03/06 11:20:48;;;;;;;2.42;1.40;;;11.30;29.10;;;;;;5021603;28;20150;-70
2021/03/06 11:23:15;;;;;;;1.95;1.40;;;11.20;29.20;;;;;;5015498;28;20468;-70
2021/03/06 11:25:42;;;;;;;5.05;1.67;;;10.90;29.40;;;;;;5022981;28;20489;-70
2021/03/06 11:28:12;;;;;;;4.95;1.70;;;10.80;30.00;;;;;;5019475;28;20061;-71
2021/03/06 11:30:40;;;;;;;2.35;1.60;;;9.90;30.80;;;;;;5024171;28;20048;-70
2021/03/06 11:33:08;;;;;;;2.83;1.52;;;10.80;29.80;;;;;;5018428;28;20140;-69
2021/03/06 11:35:35;;;;;;;4.93;1.98;;;11.40;29.40;;;;;;5019416;28;20054;-71
2021/03/06 11:38:03;;;;;;;3.58;2.10;;;12.20;28.90;;;;;;5017763;28;20049;-72
2021/03/06 11:40:32;;;;;;;2.67;1.70;;;12.70;28.30;;;;;;5020530;28;20899;-77
2021/03/06 11:42:59;;;;;;;3.03;1.75;;;13.00;27.80;;;;;;5018045;28;20141;-73
2021/03/06 11:45:25;;;;;;;3.00;1.90;;;13.90;27.40;;;;;;5017956;28;20145;-77
2021/03/06 11:47:53;;;;;;;3.28;2.10;;;12.60;27.60;;;;;;5018714;28;20148;-77
2021/03/06 11:50:24;;;;;;;3.42;1.90;;;12.40;28.10;;;;;;5016855;28;20057;-78
2021/03/06 11:52:50;;;;;;;2.70;1.90;;;12.50;28.80;;;;;;5020836;28;20049;-78
2021/03/06 11:55:17;;;;;;;3.47;1.63;;;11.90;28.80;;;;;;5019543;28;20622;-77
2021/03/06 11:57:44;;;;;;;3.38;1.70;;;11.60;29.30;;;;;;5024387;28;20101;-78
2021/03/06 12:00:14;;;;;;;2.50;1.70;;;11.60;29.00;;;;;;5034985;28;20041;-80
2021/03/06 12:02:40;;;;;;;4.35;1.95;;;11.50;29.30;;;;;;5034351;28;20150;-82
2021/03/06 12:05:09;;;;;;;3.08;1.98;;;11.70;29.60;;;;;;5067465;28;20112;-74
2021/03/06 12:07:36;;;;;;;4.47;2.00;;;11.80;28.90;;;;;;5036180;28;20053;-85
2021/03/06 12:10:05;;;;;;;2.30;1.60;;;11.40;28.70;;;;;;5032339;28;20140;-84
2021/03/06 12:12:32;;;;;;;3.80;1.90;;;11.50;28.60;;;;;;5033765;28;20106;-83
2021/03/06 12:14:59;;;;;;;3.05;1.63;;;12.10;28.30;;;;;;5035821;28;20053;-84
2021/03/06 12:17:25;;;;;;;5.30;2.22;;;12.90;28.00;;;;;;5035094;28;20108;-90
2021/03/06 12:19:52;;;;;;;2.72;1.65;;;12.70;27.80;;;;;;5036951;28;20052;-86
2021/03/06 12:22:18;;;;;;;3.15;1.75;;;12.80;27.80;;;;;;5031423;28;20092;-83
2021/03/06 12:24:46;;;;;;;4.18;1.77;;;13.80;27.00;;;;;;5036014;28;20060;-86
2021/03/06 12:27:13;;;;;;;2.60;1.40;;;12.70;27.50;;;;;;5030898;28;20069;-83
2021/03/06 12:29:40;;;;;;;2.80;1.83;;;11.80;27.90;;;;;;5033447;28;20056;-84
2021/03/06 12:32:07;;;;;;;4.00;2.03;;;11.60;28.90;;;;;;5034158;28;20053;-87
2021/03/06 12:34:34;;;;;;;2.65;1.70;;;11.80;28.50;;;;;;5036533;28;20127;-89
2021/03/06 12:37:01;;;;;;;6.30;3.20;;;11.50;28.60;;;;;;5031825;28;20041;-93
2021/03/06 12:39:28;;;;;;;4.00;2.08;;;12.10;28.10;;;;;;5024011;28;20092;-82
2021/03/06 12:41:54;;;;;;;1.88;1.50;;;12.10;27.40;;;;;;5024667;28;20053;-81
2021/03/06 12:44:22;;;;;;;2.88;1.60;;;12.20;27.60;;;;;;5018509;28;20053;-83
2021/03/06 12:46:48;;;;;;;3.72;2.15;;;12.50;27.20;;;;;;5017259;28;20107;-81
2021/03/06 12:49:17;;;;;;;3.58;2.00;;;13.20;27.10;;;;;;5030264;28;20381;-81
2021/03/06 12:51:46;;;;;;;3.22;1.95;;;13.20;27.40;;;;;;5024421;28;20060;-80
2021/03/06 12:54:13;;;;;;;6.07;2.53;;;13.20;27.80;;;;;;5034269;28;20059;-80
2021/03/06 12:56:40;;;;;;;4.07;1.70;;;13.10;27.40;;;;;;5020729;28;20121;-79
2021/03/06 12:59:07;;;;;;;2.58;1.60;;;13.20;26.70;;;;;;5021801;28;20049;-82
2021/03/06 13:01:34;;;;;;;1.75;1.40;;;12.90;25.80;;;;;;5048965;28;20116;-80
2021/03/06 13:04:01;;;;;;;4.20;1.70;;;13.70;26.20;;;;;;5059165;28;20045;-80
2021/03/06 13:06:27;;;;;;;3.50;1.50;;;13.30;25.70;;;;;;5022650;28;20744;-81
2021/03/06 13:08:54;;;;;;;3.65;1.60;;;13.50;26.00;;;;;;5029528;28;20064;-80
2021/03/06 13:11:21;;;;;;;3.65;1.70;;;14.10;25.90;;;;;;5023051;28;20534;-82